Time;durP1;ratioP1;P1;durP2;ratioP2;P2;SDS_P1;SDS_P2;PMS_P1;PMS_P2;Temp;Humidity;BMP_temperature;BMP_pressure;BME280_temperature;BME280_humidity;BME280_pressure;Samples;Min_cycle;Max_cycle;Signal;HPM_P1;HPM_P2
2022/03/19 00:09:43;;;;;;;14.25;6.50;;;;;;;;;;20836291;28;20053;-56
2022/03/19 00:19:45;;;;;;;8.70;5.55;;;;;;;;;;20835783;28;20049;-58
2022/03/19 00:29:47;;;;;;;12.93;6.20;;;;;;;;;;20834954;28;20494;-58
2022/03/19 00:39:48;;;;;;;10.05;6.07;;;;;;;;;;20834347;28;20046;-59
2022/03/19 00:49:50;;;;;;;9.15;6.13;;;;;;;;;;20833334;28;20123;-58
2022/03/19 00:59:52;;;;;;;11.10;5.70;;;;;;;;;;20833316;28;20049;-57
2022/03/19 01:09:54;;;;;;;8.30;5.10;;;;;;;;;;20831716;28;20104;-57
2022/03/19 01:19:58;;;;;;;8.95;5.45;;;;;;;;;;20828764;28;20058;-57
2022/03/19 01:30:00;;;;;;;10.50;5.30;;;;;;;;;;20831233;28;20080;-57
2022/03/19 01:40:03;;;;;;;10.15;5.28;;;;;;;;;;20830867;28;20135;-60
2022/03/19 01:50:05;;;;;;;8.30;5.10;;;;;;;;;;20829141;28;20136;-58
2022/03/19 02:00:10;;;;;;;14.40;5.18;;;;;;;;;;20827626;28;20132;-59
2022/03/19 02:10:13;;;;;;;8.35;5.30;;;;;;;;;;20828350;28;20059;-59
2022/03/19 02:20:17;;;;;;;;;;;;;;;;;;20828301;28;20050;-59
2022/03/19 02:30:21;;;;;;;10.13;4.78;;;;;;;;;;20835404;28;19925;-60
2022/03/19 02:40:24;;;;;;;9.25;5.38;;;;;;;;;;20843140;28;20065;-58
2022/03/19 02:50:28;;;;;;;11.35;5.80;;;;;;;;;;20843599;28;20504;-58
2022/03/19 03:00:32;;;;;;;12.75;5.55;;;;;;;;;;20841545;28;20047;-57
2022/03/19 03:10:37;;;;;;;9.63;5.23;;;;;;;;;;20842486;28;20099;-58
2022/03/19 03:20:40;;;;;;;11.63;5.25;;;;;;;;;;20840917;28;20049;-59
2022/03/19 03:30:43;;;;;;;12.82;5.63;;;;;;;;;;20839316;28;20046;-58
2022/03/19 03:40:45;;;;;;;11.68;5.35;;;;;;;;;;20837774;28;20050;-58
2022/03/19 03:50:52;;;;;;;10.90;5.95;;;;;;;;;;20838165;28;20049;-58
2022/03/19 04:00:56;;;;;;;11.60;5.55;;;;;;;;;;20839580;28;20551;-59
2022/03/19 04:10:58;;;;;;;12.52;5.93;;;;;;;;;;20837707;28;20049;-57
2022/03/19 04:21:02;;;;;;;9.23;5.60;;;;;;;;;;20836157;28;20525;-58
2022/03/19 04:31:04;;;;;;;11.88;5.78;;;;;;;;;;20836130;28;20084;-57
2022/03/19 04:41:05;;;;;;;10.27;5.35;;;;;;;;;;20833655;28;20061;-59
2022/03/19 04:51:12;;;;;;;12.83;5.27;;;;;;;;;;20833979;28;20096;-61
2022/03/19 05:01:18;;;;;;;9.87;5.50;;;;;;;;;;20832560;28;20390;-58
2022/03/19 05:11:21;;;;;;;9.10;5.53;;;;;;;;;;20831501;28;20052;-58
2022/03/19 05:21:23;;;;;;;11.35;6.03;;;;;;;;;;20830165;28;20049;-58
2022/03/19 05:31:25;;;;;;;8.68;5.28;;;;;;;;;;20830390;28;20099;-59
2022/03/19 05:41:27;;;;;;;12.77;6.07;;;;;;;;;;20830069;28;20442;-59
2022/03/19 05:51:30;;;;;;;11.68;6.45;;;;;;;;;;20830625;28;20081;-59
2022/03/19 06:01:31;;;;;;;11.65;5.85;;;;;;;;;;20832010;28;20062;-56
2022/03/19 06:11:33;;;;;;;12.82;7.13;;;;;;;;;;20846381;28;20440;-58
2022/03/19 06:21:35;;;;;;;10.82;5.55;;;;;;;;;;20845522;28;20053;-60
2022/03/19 06:31:37;;;;;;;11.07;6.03;;;;;;;;;;20845069;28;20050;-60
2022/03/19 06:41:39;;;;;;;18.98;6.88;;;;;;;;;;20843644;28;20490;-59
2022/03/19 06:51:42;;;;;;;11.68;5.05;;;;;;;;;;20842774;28;20103;-57
2022/03/19 07:01:44;;;;;;;13.70;5.45;;;;;;;;;;20842367;28;20045;-59
2022/03/19 07:11:45;;;;;;;10.55;5.35;;;;;;;;;;20840925;28;20089;-57
2022/03/19 07:21:47;;;;;;;14.27;5.22;;;;;;;;;;20841123;28;20062;-56
2022/03/19 07:31:49;;;;;;;10.05;5.50;;;;;;;;;;20839725;28;20506;-57
2022/03/19 07:41:52;;;;;;;10.68;5.95;;;;;;;;;;20840150;28;20045;-56
2022/03/19 07:51:55;;;;;;;11.90;6.03;;;;;;;;;;20838283;28;20052;-60
2022/03/19 08:01:57;;;;;;;11.30;5.38;;;;;;;;;;20836677;28;20053;-61
2022/03/19 08:12:00;;;;;;;14.30;6.78;;;;;;;;;;20836111;28;20465;-59
2022/03/19 08:22:03;;;;;;;12.05;6.40;;;;;;;;;;20834414;28;20128;-60
2022/03/19 08:32:05;;;;;;;13.20;6.18;;;;;;;;;;20835536;28;20404;-61
2022/03/19 08:42:07;;;;;;;13.30;6.57;;;;;;;;;;20834234;28;20056;-59
2022/03/19 08:52:09;;;;;;;11.43;5.78;;;;;;;;;;20834595;28;20053;-59
2022/03/19 09:02:10;;;;;;;12.00;5.95;;;;;;;;;;20833119;28;20049;-59
2022/03/19 09:12:12;;;;;;;9.60;5.95;;;;;;;;;;20832115;28;20509;-59
2022/03/19 09:22:14;;;;;;;13.82;5.60;;;;;;;;;;20831507;28;20061;-60
2022/03/19 09:32:19;;;;;;;10.75;5.35;;;;;;;;;;20830683;28;20045;-60
2022/03/19 09:42:20;;;;;;;;;;;;;;;;;;20830616;28;20398;-61
2022/03/19 09:52:27;;;;;;;8.32;4.88;;;;;;;;;;20861431;28;19928;-60
2022/03/19 10:02:29;;;;;;;13.77;5.55;;;;;;;;;;20830467;28;20462;-58
2022/03/19 10:12:31;;;;;;;11.27;5.50;;;;;;;;;;20829277;28;20053;-59
2022/03/19 10:22:34;;;;;;;12.45;5.45;;;;;;;;;;20829206;28;20107;-63
2022/03/19 10:32:36;;;;;;;11.25;5.30;;;;;;;;;;20828356;28;20548;-59
2022/03/19 10:42:42;;;;;;;13.63;5.60;;;;;;;;;;20828235;28;20045;-56
2022/03/19 10:52:44;;;;;;;14.18;6.63;;;;;;;;;;20837282;28;20079;-56
2022/03/19 11:02:48;;;;;;;10.48;5.90;;;;;;;;;;20843118;28;20124;-58
2022/03/19 11:12:52;;;;;;;13.82;5.93;;;;;;;;;;20841939;28;20531;-57
2022/03/19 11:22:55;;;;;;;11.57;5.53;;;;;;;;;;20841182;28;20050;-59
2022/03/19 11:33:03;;;;;;;14.15;5.72;;;;;;;;;;20839695;28;20053;-57
2022/03/19 11:43:06;;;;;;;8.90;5.57;;;;;;;;;;20838810;28;20045;-59
2022/03/19 11:53:08;;;;;;;10.50;5.32;;;;;;;;;;20838318;28;20050;-59
2022/03/19 12:03:24;;;;;;;9.57;4.78;;;;;;;;;;20836466;28;20131;-58
2022/03/19 12:13:29;;;;;;;12.63;4.90;;;;;;;;;;20836405;28;20049;-57
2022/03/19 12:23:50;;;;;;;9.60;4.53;;;;;;;;;;20835188;28;20120;-58
2022/03/19 12:33:52;;;;;;;8.48;4.65;;;;;;;;;;20835900;28;20470;-56
2022/03/19 12:43:55;;;;;;;11.70;4.00;;;;;;;;;;20834812;28;20481;-58
2022/03/19 12:53:58;;;;;;;14.35;6.50;;;;;;;;;;20835481;28;20084;-60
2022/03/19 13:04:04;;;;;;;8.95;5.32;;;;;;;;;;20832524;28;20045;-61
2022/03/19 13:14:06;;;;;;;11.52;6.20;;;;;;;;;;20832977;28;20054;-61
2022/03/19 13:24:12;;;;;;;10.20;5.18;;;;;;;;;;20830327;28;20056;-60
2022/03/19 13:34:25;;;;;;;10.90;5.43;;;;;;;;;;20831009;28;20053;-57
2022/03/19 13:44:31;;;;;;;8.35;4.60;;;;;;;;;;20830211;28;20498;-57
2022/03/19 13:54:46;;;;;;;8.50;5.75;;;;;;;;;;20828971;28;20049;-61
2022/03/19 14:04:48;;;;;;;7.70;4.78;;;;;;;;;;20829395;28;20442;-61
2022/03/19 14:14:51;;;;;;;7.75;5.25;;;;;;;;;;20828282;28;20057;-61
2022/03/19 14:24:53;;;;;;;7.88;5.32;;;;;;;;;;20833116;28;20061;-59
2022/03/19 14:34:56;;;;;;;5.65;3.50;;;;;;;;;;20843342;28;20053;-59
2022/03/19 14:44:58;;;;;;;3.72;2.55;;;;;;;;;;20843202;28;20041;-60
2022/03/19 14:55:02;;;;;;;8.23;4.25;;;;;;;;;;20842549;28;20103;-59
2022/03/19 15:05:05;;;;;;;8.30;5.20;;;;;;;;;;20841792;28;20080;-60
2022/03/19 15:15:10;;;;;;;7.95;5.10;;;;;;;;;;20841471;28;20662;-62
2022/03/19 15:25:12;;;;;;;6.97;2.50;;;;;;;;;;20840297;28;20046;-58
2022/03/19 15:35:14;;;;;;;5.45;2.65;;;;;;;;;;20837711;28;20060;-58
2022/03/19 15:45:18;;;;;;;5.47;2.97;;;;;;;;;;20838781;28;20108;-57
2022/03/19 15:55:20;;;;;;;8.23;3.85;;;;;;;;;;20837637;28;20049;-57
2022/03/19 16:05:22;;;;;;;5.70;2.90;;;;;;;;;;20835726;28;20057;-58
2022/03/19 16:15:24;;;;;;;8.48;3.78;;;;;;;;;;20836614;28;20045;-57
2022/03/19 16:25:26;;;;;;;7.20;3.22;;;;;;;;;;20834431;28;20096;-57
2022/03/19 16:35:28;;;;;;;10.50;4.10;;;;;;;;;;20834286;28;20053;-58
2022/03/19 16:45:30;;;;;;;6.35;3.10;;;;;;;;;;20833664;28;20052;-57
2022/03/19 16:55:32;;;;;;;8.23;3.78;;;;;;;;;;20832843;28;20053;-57
2022/03/19 17:05:35;;;;;;;7.15;3.15;;;;;;;;;;20831870;28;20051;-57
2022/03/19 17:15:37;;;;;;;5.57;3.13;;;;;;;;;;20830960;28;20055;-58
2022/03/19 17:25:40;;;;;;;6.72;3.90;;;;;;;;;;20830476;28;20053;-58
2022/03/19 17:35:42;;;;;;;8.75;3.60;;;;;;;;;;20830531;28;20540;-59
2022/03/19 17:45:44;;;;;;;11.80;4.88;;;;;;;;;;20829695;28;20047;-58
2022/03/19 17:55:46;;;;;;;7.35;3.70;;;;;;;;;;20828370;28;20096;-61
2022/03/19 18:05:48;;;;;;;10.75;3.83;;;;;;;;;;20828183;28;20509;-62
2022/03/19 18:15:49;;;;;;;6.22;4.60;;;;;;;;;;20827842;28;20046;-61
2022/03/19 18:25:52;;;;;;;9.25;3.45;;;;;;;;;;20828029;28;20065;-60
2022/03/19 18:35:54;;;;;;;9.88;3.88;;;;;;;;;;20827596;28;20545;-61
2022/03/19 18:45:56;;;;;;;6.10;3.40;;;;;;;;;;20827381;28;20405;-61
2022/03/19 18:55:58;;;;;;;8.70;5.68;;;;;;;;;;20826521;28;20053;-59
2022/03/19 19:06:05;;;;;;;10.03;6.73;;;;;;;;;;20826494;28;20057;-59
2022/03/19 19:16:08;;;;;;;9.98;6.95;;;;;;;;;;20839466;28;20053;-61
2022/03/19 19:26:10;;;;;;;14.60;8.00;;;;;;;;;;20839926;28;20075;-57
2022/03/19 19:36:12;;;;;;;9.05;6.18;;;;;;;;;;20839142;28;20144;-56
2022/03/19 19:46:14;;;;;;;16.63;9.50;;;;;;;;;;20837428;28;20076;-60
2022/03/19 19:56:16;;;;;;;12.68;7.32;;;;;;;;;;20838962;28;20417;-58
2022/03/19 20:06:18;;;;;;;14.63;6.97;;;;;;;;;;20837213;28;20053;-60
2022/03/19 20:16:20;;;;;;;15.45;9.90;;;;;;;;;;20873070;28;20088;-62
2022/03/19 20:26:22;;;;;;;13.13;8.95;;;;;;;;;;20920004;28;20100;-62
2022/03/19 20:36:24;;;;;;;18.35;9.18;;;;;;;;;;20916476;28;20084;-61
2022/03/19 20:46:27;;;;;;;14.10;7.78;;;;;;;;;;20916716;28;20124;-64
2022/03/19 20:56:28;;;;;;;18.10;8.57;;;;;;;;;;20916001;28;20052;-63
2022/03/19 21:06:30;;;;;;;9.18;6.20;;;;;;;;;;20915241;28;20145;-56
2022/03/19 21:16:36;;;;;;;11.10;5.35;;;;;;;;;;20914084;28;20049;-60
2022/03/19 21:26:38;;;;;;;9.98;5.30;;;;;;;;;;20913824;28;20053;-58
2022/03/19 21:36:42;;;;;;;10.48;5.32;;;;;;;;;;20912480;28;20045;-59
2022/03/19 21:46:44;;;;;;;11.35;6.03;;;;;;;;;;20912068;28;20056;-58
2022/03/19 21:56:48;;;;;;;9.70;5.03;;;;;;;;;;20912311;28;20406;-60
2022/03/19 22:06:50;;;;;;;9.35;4.95;;;;;;;;;;20911897;28;20045;-59
2022/03/19 22:16:52;;;;;;;6.85;3.85;;;;;;;;;;20911567;28;20053;-59
2022/03/19 22:26:54;;;;;;;12.73;7.05;;;;;;;;;;20910998;28;20057;-59
2022/03/19 22:36:56;;;;;;;5.97;3.17;;;;;;;;;;20911147;28;20049;-59
2022/03/19 22:46:58;;;;;;;4.95;3.15;;;;;;;;;;20917784;28;20167;-61
2022/03/19 22:57:00;;;;;;;4.18;2.38;;;;;;;;;;20925836;28;20505;-59
2022/03/19 23:07:02;;;;;;;5.75;2.45;;;;;;;;;;20924598;28;20053;-62
2022/03/19 23:17:06;;;;;;;5.07;2.63;;;;;;;;;;20924063;28;20060;-57
2022/03/19 23:27:11;;;;;;;4.97;2.50;;;;;;;;;;20923156;28;20067;-63
2022/03/19 23:37:13;;;;;;;4.95;3.08;;;;;;;;;;20922895;28;20580;-58
2022/03/19 23:47:15;;;;;;;3.72;2.45;;;;;;;;;;20922996;28;20123;-58
2022/03/19 23:57:17;;;;;;;5.57;2.63;;;;;;;;;;20919809;28;20508;-60
